Flight Track Log - Related Links

Times and Time Zones

All times are in EST time to prevent confusion due to time zone crossing. See the CES5107 flight status page for this flight to view local times or setup timezone preferences in your user account.

Time Position Orientation Groundspeed Altitude Reporting Facility
EST Latitude Longitude Course Direction KTS MPH feet Rate Location/Type
Mon 10:13:28 PM 31.2179 121.3276 339° North 134 154 1,400  Level FlightAware ADS-B (ZSSS / SHA)
Mon 10:13:42 PM 31.2243 121.3220 323° Northwest 132 152 2,000 2,276 Climbing FlightAware ADS-B (ZSSS / SHA)
Mon 10:13:57 PM 31.2316 121.3153 322° Northwest 130 150 2,500 1,742 Climbing FlightAware ADS-B (ZSSS / SHA)
Mon 10:14:13 PM 31.2394 121.3084 323° Northwest 135 155 2,900 1,161 Climbing FlightAware ADS-B (ZSSS / SHA)
Mon 10:14:28 PM 31.2471 121.3016 323° Northwest 149 171 3,100 774 Climbing FlightAware ADS-B (ZSSS / SHA)
Mon 10:14:44 PM 31.2566 121.2931 323° Northwest 174 200 3,300 828 Climbing FlightAware ADS-B (ZSSS / SHA)
Mon 10:14:57 PM 31.2656 121.2850 322° Northwest 196 226 3,500 857 Climbing FlightAware ADS-B (ZSSS / SHA)
Mon 10:15:12 PM 31.2768 121.2748 322° Northwest 222 255 3,700 1,000 Climbing FlightAware ADS-B (ZSSS / SHA)
Mon 10:15:27 PM 31.2907 121.2621 322° Northwest 251 289 4,000 1,742 Climbing FlightAware ADS-B (ZSSS / SHA)
Mon 10:15:43 PM 31.3053 121.2488 322° Northwest 263 303 4,600 3,000 Climbing FlightAware ADS-B (ZSSS / SHA)
Mon 10:15:59 PM 31.3207 121.2347 322° Northwest 263 303 5,600 3,600 Climbing FlightAware ADS-B (ZSSS / SHA)
Mon 10:16:18 PM 31.3404 121.2167 322° Northwest 263 303 6,700 3,353 Climbing FlightAware ADS-B (ZSSS / SHA)
Mon 10:16:33 PM 31.3552 121.2032 322° Northwest 279 321 7,500 2,800 Climbing FlightAware ADS-B (ZSSS / SHA)
Mon 10:16:48 PM 31.3697 121.1901 322° Northwest 286 329 8,100 1,800 Climbing FlightAware ADS-B (ZSSS / SHA)
Mon 10:17:03 PM 31.3832 121.1778 322° Northwest 284 327 8,400 1,029 Climbing FlightAware ADS-B (ZSSS / SHA)
Mon 10:17:23 PM 31.4076 121.1556 322° Northwest 287 330 8,700 2,025 Climbing FlightAware ADS-B (ZSSS / SHA)
Mon 10:18:23 PM 31.4741 121.1036 326° Northwest 317 365 11,100 2,400 Climbing FlightAware ADS-B (ZSSS / SHA)
Mon 10:20:00 PM 31.5904 121.0490 338° Northwest  Level Estimated
Mon 10:21:00 PM 31.6624 121.0152 338° Northwest  Level Estimated
Mon 10:22:00 PM 31.7343 120.9813 338° Northwest  Level Estimated
Mon 10:23:00 PM 31.8062 120.9474 338° Northwest  Level Estimated
Mon 10:24:00 PM 31.8782 120.9134 338° Northwest  Level Estimated
Mon 10:25:00 PM 31.9501 120.8793 338° Northwest  Level Estimated
Mon 10:26:00 PM 32.0220 120.8453 338° Northwest  Level Estimated
Mon 10:27:00 PM 32.0938 120.8111 338° Northwest  Level Estimated
Mon 10:28:00 PM 32.1657 120.7769 338° Northwest  Level Estimated
Mon 10:29:00 PM 32.2376 120.7427 338° Northwest  Level Estimated
Mon 10:30:00 PM 32.3095 120.7084 338° Northwest  Level Estimated
Mon 10:31:00 PM 32.3813 120.6740 338° Northwest  Level Estimated
Mon 10:32:00 PM 32.4532 120.6396 338° Northwest  Level Estimated
Mon 10:33:00 PM 32.5250 120.6051 338° Northwest  Level Estimated
Mon 10:34:00 PM 32.5968 120.5706 338° Northwest  Level Estimated
Mon 10:35:00 PM 32.6686 120.5360 338° Northwest  Level Estimated
Mon 10:36:00 PM 32.7480 120.4977 338° Northwest  Level Estimated
Mon 10:37:00 PM 32.8275 120.4594 338° Northwest  Level Estimated
Mon 10:38:00 PM 32.9069 120.4209 338° Northwest  Level Estimated
Mon 10:39:00 PM 32.9863 120.3824 338° Northwest  Level Estimated
Mon 10:40:00 PM 33.0656 120.3438 338° Northwest  Level Estimated
Mon 10:41:00 PM 33.1450 120.3051 338° Northwest  Level Estimated
Mon 10:42:00 PM 33.2244 120.2664 338° Northwest  Level Estimated
Mon 10:43:00 PM 33.3037 120.2276 338° Northwest  Level Estimated
Mon 10:44:00 PM 33.3830 120.1887 338° Northwest  Level Estimated
Mon 10:45:00 PM 33.4624 120.1498 338° Northwest  Level Estimated
Mon 10:46:00 PM 33.5417 120.1108 338° Northwest  Level Estimated
Mon 10:47:00 PM 33.6210 120.0717 338° Northwest  Level Estimated
Mon 10:48:00 PM 33.7003 120.0325 338° Northwest  Level Estimated
Mon 10:49:00 PM 33.7795 119.9933 338° Northwest  Level Estimated
Mon 10:50:00 PM 33.8588 119.9540 338° Northwest  Level Estimated
Mon 10:51:00 PM 33.9380 119.9146 338° Northwest  Level Estimated
Mon 10:52:00 PM 34.0173 119.8752 338° Northwest  Level Estimated
Mon 10:53:00 PM 34.0965 119.8357 338° Northwest  Level Estimated
Mon 10:54:00 PM 34.1757 119.7961 338° Northwest  Level Estimated
Mon 10:55:00 PM 34.2549 119.7564 338° Northwest  Level Estimated
Mon 10:56:00 PM 34.3341 119.7167 337° Northwest  Level Estimated
Mon 10:57:00 PM 34.4133 119.6768 337° Northwest  Level Estimated
Mon 10:58:00 PM 34.4924 119.6369 337° Northwest  Level Estimated
Mon 10:59:00 PM 34.5716 119.5970 337° Northwest  Level Estimated
Mon 11:00:00 PM 34.6507 119.5569 337° Northwest  Level Estimated
Mon 11:01:00 PM 34.7298 119.5168 337° Northwest  Level Estimated
Mon 11:02:00 PM 34.8089 119.4766 337° Northwest  Level Estimated
Mon 11:03:00 PM 34.8880 119.4363 337° Northwest  Level Estimated
Mon 11:04:00 PM 34.9671 119.3960 337° Northwest  Level Estimated
Mon 11:05:00 PM 35.0462 119.3555 337° Northwest  Level Estimated
Mon 11:06:00 PM 35.1252 119.3150 337° Northwest  Level Estimated
Mon 11:07:00 PM 35.2043 119.2744 337° Northwest  Level Estimated
Mon 11:08:00 PM 35.2833 119.2338 337° Northwest  Level Estimated
Mon 11:09:00 PM 35.3623 119.1930 337° Northwest  Level Estimated
Mon 11:10:00 PM 35.4413 119.1522 337° Northwest  Level Estimated
Mon 11:11:00 PM 35.5203 119.1113 337° Northwest  Level Estimated
Mon 11:12:00 PM 35.5993 119.0703 337° Northwest  Level Estimated
Mon 11:13:00 PM 35.6782 119.0292 337° Northwest  Level Estimated
Mon 11:14:00 PM 35.7572 118.9881 337° Northwest  Level Estimated
Mon 11:15:00 PM 35.8361 118.9468 337° Northwest  Level Estimated
Mon 11:16:00 PM 35.9150 118.9055 337° Northwest  Level Estimated
Mon 11:17:00 PM 35.9939 118.8641 337° Northwest  Level Estimated
Mon 11:18:00 PM 36.0728 118.8226 337° Northwest  Level Estimated
Mon 11:19:00 PM 36.1517 118.7811 337° Northwest  Level Estimated
Mon 11:20:00 PM 36.2305 118.7394 337° Northwest  Level Estimated
Mon 11:21:00 PM 36.3094 118.6977 337° Northwest  Level Estimated
Mon 11:22:00 PM 36.3882 118.6559 337° Northwest  Level Estimated
Mon 11:23:00 PM 36.4670 118.6140 337° Northwest  Level Estimated
Mon 11:24:00 PM 36.5458 118.5720 337° Northwest  Level Estimated
Mon 11:25:00 PM 36.6246 118.5299 337° Northwest  Level Estimated
Mon 11:26:00 PM 36.7034 118.4877 337° Northwest  Level Estimated
Mon 11:27:00 PM 36.7821 118.4455 337° Northwest  Level Estimated
Mon 11:28:00 PM 36.8609 118.4032 337° Northwest  Level Estimated
Mon 11:29:00 PM 36.9396 118.3608 337° Northwest  Level Estimated
Mon 11:30:00 PM 37.0183 118.3183 337° Northwest  Level Estimated
Mon 11:31:00 PM 37.0970 118.2757 337° Northwest  Level Estimated
Mon 11:32:00 PM 37.1757 118.2330 337° Northwest  Level Estimated
Mon 11:33:00 PM 37.2543 118.1902 337° Northwest  Level Estimated
Mon 11:34:00 PM 37.3330 118.1473 337° Northwest  Level Estimated
Mon 11:35:00 PM 37.4116 118.1044 337° Northwest  Level Estimated
Mon 11:36:00 PM 37.4902 118.0613 337° Northwest  Level Estimated
Mon 11:37:00 PM 37.5688 118.0182 336° Northwest  Level Estimated
Mon 11:38:00 PM 37.6474 117.9750 336° Northwest  Level Estimated
Mon 11:39:00 PM 37.7260 117.9317 336° Northwest  Level Estimated
Mon 11:40:00 PM 37.8045 117.8883 336° Northwest  Level Estimated
Mon 11:41:00 PM 37.8831 117.8448 336° Northwest  Level Estimated
Mon 11:42:00 PM 37.9616 117.8012 336° Northwest  Level Estimated
Mon 11:43:00 PM 38.0401 117.7575 336° Northwest  Level Estimated
Mon 11:44:00 PM 38.1186 117.7137 336° Northwest  Level Estimated
Mon 11:45:00 PM 38.1971 117.6698 336° Northwest  Level Estimated
Mon 11:46:00 PM 38.2755 117.6259 336° Northwest  Level Estimated
Mon 11:47:00 PM 38.3540 117.5818 336° Northwest  Level Estimated
Mon 11:48:00 PM 38.4324 117.5377 336° Northwest  Level Estimated
Mon 11:49:00 PM 38.5108 117.4934 336° Northwest  Level Estimated
Mon 11:50:00 PM 38.5892 117.4490 336° Northwest  Level Estimated
Mon 11:51:00 PM 38.6676 117.4046 336° Northwest  Level Estimated
Mon 11:52:00 PM 38.7459 117.3600 336° Northwest  Level Estimated
Mon 11:53:00 PM 38.8243 117.3154 336° Northwest  Level Estimated
Mon 11:54:00 PM 38.9026 117.2707 336° Northwest  Level Estimated
Mon 11:55:00 PM 38.9809 117.2258 336° Northwest  Level Estimated
Mon 11:56:00 PM 39.0592 117.1809 336° Northwest  Level Estimated
Mon 11:57:00 PM 39.1375 117.1358 336° Northwest  Level Estimated
Mon 11:58:00 PM 39.2157 117.0907 336° Northwest  Level Estimated
Mon 11:59:00 PM 39.2939 117.0455 336° Northwest  Level Estimated
Tue 12:00:00 AM 39.3722 117.0001 336° Northwest  Level Estimated
Tue 12:01:00 AM 39.4504 116.9547 336° Northwest  Level Estimated
Tue 12:02:00 AM 39.5285 116.9091 336° Northwest  Level Estimated
Tue 12:03:00 AM 39.6067 116.8635 336° Northwest  Level Estimated
Tue 12:04:00 AM 39.6849 116.8177 336° Northwest  Level Estimated
Tue 12:05:00 AM 39.7630 116.7719 336° Northwest  Level Estimated
Tue 12:06:00 AM 39.8411 116.7259 336° Northwest  Level Estimated
Tue 12:07:00 AM 39.9192 116.6798 336° Northwest  Level Estimated
Tue 12:08:00 AM 39.9973 116.6337 336° Northwest  Level Estimated
Tue 12:09:00 AM 40.0753 116.5874 336° Northwest  Level Estimated
Tue 12:10:00 AM 40.0801 116.5846 336° Northwest  Level Estimated
Tue 12:11:00 AM 40.0801 116.5846 288° West  Level Estimated
Tue 12:12:00 AM 40.0801 116.5846 288° West  Level Estimated
Tue 12:13:00 AM 40.0801 116.5846 288° West  Level Estimated
Tue 12:14:00 AM 40.0801 116.5846 288° West  Level Estimated
Tue 12:15:00 AM 40.0801 116.5846 288° West  Level Estimated
Tue 12:16:00 AM 40.0801 116.5846 288° West  Level Estimated
Tue 12:17:00 AM 40.0801 116.5846 288° West  Level Estimated
Tue 12:18:00 AM 40.0801 116.5846 288° West  Level Estimated

Login

Don't have an account? Register now (free) for customized features, flight alerts, and more!